Airfield :
LOGIN :

Register | Disclaimer

   EN    FR    IT 

 










Legend :    VFR   Marginal VFR   IFR   Intensive IFR   Very Intensive IFR
Visi :
Ceiling :
>= 8 km
>= 3000ft
5 to 8 km
1000 to 3000 ft
1500m to 5 km
500 to 1000 ft
800 to 1500m
200 to 500 ft
< 800m
< 200 ft
Symbols :   Thunderstorms  Fog  Heavy snow  Heavy precipitations  Wind > 20 kt
SIGMETs :     Misc.  Thunderstorms  Icing  Turbulence  Mountain Waves  Volcanic Ashes






- Airport Elevation : 2356 ft


LZTT - Poprad Tatry

CURRENT METAR :
  • 210000Z 13003KT 8000 FEW008 BKN050 06/06 Q1015

EXPIRED METARs :
  • 202330Z 19002KT 9999 SCT016 BKN040 06/05 Q1015
  • 202300Z 18003KT 140V210 9999 -RA BKN016 BKN033 06/06 Q1015
  • 202230Z VRB02KT 9999 -RA FEW016 SCT033 OVC053 06/05 Q1015
  • 202200Z 34004KT 9999 -RA SCT030 OVC050 07/05 Q1015
  • 202130Z VRB02KT 9999 -RA BKN030 07/06 Q1015

TAF TAF LZTT
Valid from the 21 at 00:00 until the 22 at 00:00 UTC


202300Z 2100/2200 VRB02KT 9999 SCT033 OVC040
TEMPO 2100/2200 15005KT 6000 -RA SCT015 OVC035
PROB40
TEMPO 2104/2112 2500 RA BR BKN007 OVC025



MET'MAP, your aeronautical weather chart ! - Copyright ORBIFLY December 2007 - Disclaimer

ORBIFLY MET'MAP TEAM :

Programming & Development : Alexandra Zaïnal
Concept & Development : Baudouin d'Aumeries
Co-Development & Prog : Marc-Olivier Méhu
Technical & hardware support : Manuel Goepfert

Contact : metmap@orbifly.com




SOURCES & CREDITS :

   NOAA